createdAt,value
2019-02-28T00:01:28.017Z,9.35
2019-02-28T00:03:58.317Z,7.53
2019-02-28T00:06:28.745Z,7.67
2019-02-28T00:08:58.243Z,7.10
2019-02-28T00:11:27.723Z,8.00
2019-02-28T00:13:57.230Z,8.18
2019-02-28T00:16:26.708Z,9.78
2019-02-28T00:18:56.345Z,7.15
2019-02-28T00:21:25.912Z,7.20
2019-02-28T00:23:57.265Z,7.92
2019-02-28T00:26:26.702Z,8.03
2019-02-28T00:28:56.984Z,7.03
2019-02-28T00:31:27.432Z,7.78
2019-02-28T00:33:56.943Z,8.70
2019-02-28T00:36:26.435Z,7.33
2019-02-28T00:38:55.914Z,8.78
2019-02-28T00:41:25.477Z,8.03
2019-02-28T00:43:56.915Z,7.60
2019-02-28T00:46:26.212Z,8.33
2019-02-28T00:48:55.701Z,7.40
2019-02-28T00:51:25.224Z,8.15
2019-02-28T00:53:54.746Z,7.33
2019-02-28T00:56:24.375Z,6.67
2019-02-28T00:58:53.943Z,7.78
2019-02-28T01:01:23.433Z,6.70
2019-02-28T01:03:53.023Z,7.03
2019-02-28T01:06:22.665Z,5.80
2019-02-28T01:08:55.955Z,5.80
2019-02-28T01:11:23.438Z,6.37
2019-02-28T01:13:53.028Z,5.42
2019-02-28T01:16:22.526Z,5.75
2019-02-28T01:18:51.992Z,6.15
2019-02-28T01:21:23.859Z,6.12
2019-02-28T01:23:52.829Z,6.00
2019-02-28T01:26:22.401Z,6.08
2019-02-28T01:28:51.888Z,5.33
2019-02-28T01:31:21.385Z,6.97
2019-02-28T01:33:50.895Z,5.42
2019-02-28T01:36:20.372Z,5.50
2019-02-28T01:38:49.860Z,4.72
2019-02-28T01:41:19.342Z,5.37
2019-02-28T01:43:48.835Z,4.45
2019-02-28T01:46:18.319Z,5.05
2019-02-28T01:48:47.824Z,5.25
2019-02-28T01:51:17.392Z,5.83
2019-02-28T01:53:46.882Z,4.92
2019-02-28T01:56:16.462Z,4.85
2019-02-28T01:58:51.923Z,5.47
2019-02-28T02:01:21.445Z,4.90
2019-02-28T02:03:50.947Z,5.83
2019-02-28T02:06:22.501Z,4.72
2019-02-28T02:08:51.633Z,4.55
2019-02-28T02:11:21.119Z,4.65
2019-02-28T02:13:52.265Z,5.20
2019-02-28T02:16:26.762Z,5.15
2019-02-28T02:18:52.982Z,5.37
2019-02-28T02:21:22.505Z,4.85
2019-02-28T02:23:52.958Z,5.45
2019-02-28T02:26:23.274Z,4.80
2019-02-28T02:28:52.829Z,4.62
2019-02-28T02:31:27.241Z,5.10
2019-02-28T02:33:53.604Z,4.62
2019-02-28T02:36:23.103Z,4.28
2019-02-28T02:38:52.658Z,4.30
2019-02-28T02:41:22.185Z,5.85
2019-02-28T02:43:54.854Z,4.87
2019-02-28T02:46:22.929Z,4.53
2019-02-28T02:48:52.460Z,4.42
2019-02-28T02:51:21.964Z,5.00
2019-02-28T02:53:51.611Z,4.10
2019-02-28T02:56:22.757Z,4.58
2019-02-28T02:58:52.223Z,4.90
2019-02-28T03:01:23.203Z,4.00
2019-02-28T03:03:52.917Z,4.85
2019-02-28T03:06:22.393Z,5.40
2019-02-28T03:08:51.876Z,3.90
2019-02-28T03:11:24.689Z,5.87
2019-02-28T03:13:52.639Z,4.92
2019-02-28T03:16:23.330Z,5.00
2019-02-28T03:18:56.489Z,4.60
2019-02-28T03:21:24.036Z,5.08
2019-02-28T03:23:53.668Z,4.55
2019-02-28T03:26:23.149Z,5.40
2019-02-28T03:28:52.658Z,4.90
2019-02-28T03:31:22.165Z,3.70
2019-02-28T03:33:51.636Z,6.03
2019-02-28T03:36:21.217Z,4.58
2019-02-28T03:38:50.739Z,7.55
2019-02-28T03:41:20.252Z,4.92
2019-02-28T03:43:49.735Z,5.05
2019-02-28T03:46:19.241Z,5.60
2019-02-28T03:48:48.714Z,5.80
2019-02-28T03:51:18.373Z,5.15
2019-02-28T03:53:47.888Z,4.45
2019-02-28T03:56:19.136Z,5.25
2019-02-28T03:58:48.692Z,4.40
2019-02-28T04:01:18.319Z,5.62
2019-02-28T04:03:50.608Z,5.70
2019-02-28T04:06:20.159Z,5.85
2019-02-28T04:08:49.742Z,6.00
2019-02-28T04:11:19.219Z,5.70
2019-02-28T04:13:52.552Z,5.12
2019-02-28T04:16:19.912Z,5.35
2019-02-28T04:18:49.415Z,5.60
2019-02-28T04:21:18.888Z,5.78
2019-02-28T04:23:48.447Z,6.50
2019-02-28T04:26:18.022Z,5.20
2019-02-28T04:28:53.475Z,4.75
2019-02-28T04:31:20.144Z,6.42
2019-02-28T04:33:49.960Z,4.65
2019-02-28T04:36:19.487Z,5.20
2019-02-28T04:38:51.745Z,5.70
2019-02-28T04:41:20.217Z,5.37
2019-02-28T04:43:49.675Z,5.37
2019-02-28T04:46:19.179Z,6.00
2019-02-28T04:48:49.177Z,5.75
2019-02-28T04:51:18.709Z,5.90
2019-02-28T04:53:52.646Z,5.60
2019-02-28T04:56:19.410Z,6.70
2019-02-28T04:58:48.975Z,6.75
2019-02-28T05:01:18.540Z,6.83
2019-02-28T05:03:48.032Z,6.55
2019-02-28T05:06:18.382Z,6.00
2019-02-28T05:08:48.750Z,6.87
2019-02-28T05:11:18.215Z,6.58
2019-02-28T05:13:48.762Z,6.20
2019-02-28T05:16:18.971Z,5.55
2019-02-28T05:18:48.473Z,7.17
2019-02-28T05:21:20.981Z,6.80
2019-02-28T05:23:50.463Z,7.35
2019-02-28T05:26:19.953Z,6.58
2019-02-28T05:28:49.453Z,6.62
2019-02-28T05:31:18.947Z,7.15
2019-02-28T05:33:48.446Z,8.50
2019-02-28T05:36:18.014Z,7.60
2019-02-28T05:38:47.506Z,7.45
2019-02-28T05:41:17.004Z,6.03
2019-02-28T05:43:46.486Z,6.20
2019-02-28T05:46:15.982Z,7.55
2019-02-28T05:48:48.330Z,8.00
2019-02-28T05:51:17.836Z,7.17
2019-02-28T05:53:47.367Z,7.33
2019-02-28T05:56:16.856Z,6.90
2019-02-28T05:58:46.348Z,5.85
2019-02-28T06:01:15.878Z,7.45
2019-02-28T06:03:45.559Z,7.53
2019-02-28T06:06:17.282Z,6.30
2019-02-28T06:08:46.264Z,6.80
2019-02-28T06:11:15.756Z,5.83
2019-02-28T06:13:45.251Z,6.62
2019-02-28T06:16:14.768Z,6.75
2019-02-28T06:18:44.371Z,8.33
2019-02-28T06:21:13.854Z,9.35
2019-02-28T06:23:43.375Z,7.40
2019-02-28T06:26:12.934Z,9.43
2019-02-28T06:28:42.481Z,8.88
2019-02-28T06:31:14.327Z,7.25
2019-02-28T06:33:46.226Z,7.30
2019-02-28T06:36:15.724Z,8.90
2019-02-28T06:38:45.199Z,7.58
2019-02-28T06:41:14.767Z,7.90
2019-02-28T06:43:44.386Z,7.17
2019-02-28T06:46:13.896Z,7.20
2019-02-28T06:48:43.413Z,7.12
2019-02-28T06:51:12.902Z,9.13
2019-02-28T06:53:42.660Z,10.45
2019-02-28T06:56:12.147Z,6.42
2019-02-28T06:58:41.630Z,7.75
2019-02-28T07:01:11.192Z,7.35
2019-02-28T07:03:42.490Z,6.85
2019-02-28T07:06:12.019Z,8.38
2019-02-28T07:08:41.509Z,6.55
2019-02-28T07:11:11.015Z,8.78
2019-02-28T07:13:40.519Z,7.95
2019-02-28T07:16:10.076Z,7.17
2019-02-28T07:18:39.579Z,7.62
2019-02-28T07:21:09.079Z,7.55
2019-02-28T07:23:39.463Z,9.28
2019-02-28T07:26:08.973Z,7.87
2019-02-28T07:28:38.455Z,7.90
2019-02-28T07:31:07.941Z,8.85
2019-02-28T07:33:37.505Z,10.38
2019-02-28T07:36:09.640Z,10.53
2019-02-28T07:38:39.688Z,10.80
2019-02-28T07:41:09.125Z,9.70
2019-02-28T07:43:38.672Z,7.75
2019-02-28T07:46:08.892Z,7.08
2019-02-28T07:48:38.530Z,9.38
2019-02-28T07:51:08.105Z,9.05
2019-02-28T07:53:40.938Z,10.15
2019-02-28T07:56:08.860Z,8.88
2019-02-28T07:58:38.372Z,11.18
2019-02-28T08:01:07.931Z,10.63
2019-02-28T08:03:37.415Z,11.60
2019-02-28T08:06:07.050Z,9.70
2019-02-28T08:08:38.176Z,10.35
2019-02-28T08:11:07.663Z,10.53
2019-02-28T08:13:37.824Z,11.68
2019-02-28T08:16:08.536Z,10.70
2019-02-28T08:18:38.223Z,10.53
2019-02-28T08:21:08.772Z,10.53
2019-02-28T08:23:38.905Z,9.43
2019-02-28T08:26:08.418Z,10.55
2019-02-28T08:28:38.076Z,10.55
2019-02-28T08:31:08.183Z,11.50
2019-02-28T08:33:37.671Z,11.73
2019-02-28T08:36:11.591Z,12.03
2019-02-28T08:38:38.507Z,12.35
2019-02-28T08:41:08.470Z,11.75
2019-02-28T08:43:37.973Z,13.15
2019-02-28T08:46:10.831Z,11.80
2019-02-28T08:48:38.674Z,13.28
2019-02-28T08:51:08.178Z,13.13
2019-02-28T08:53:37.690Z,13.78
2019-02-28T08:56:07.241Z,13.23
2019-02-28T08:58:37.665Z,12.77
2019-02-28T09:01:08.696Z,11.70
2019-02-28T09:03:38.364Z,15.23
2019-02-28T09:06:07.931Z,14.30
2019-02-28T09:08:37.522Z,12.90
2019-02-28T09:11:07.019Z,13.53
2019-02-28T09:13:36.607Z,13.40
2019-02-28T09:16:06.353Z,14.20
2019-02-28T09:18:35.849Z,14.07
2019-02-28T09:21:05.446Z,12.97
2019-02-28T09:23:37.533Z,13.47
2019-02-28T09:26:06.328Z,13.10
2019-02-28T09:28:35.885Z,15.43
2019-02-28T09:31:06.035Z,14.70
2019-02-28T09:33:35.545Z,16.33
2019-02-28T09:36:05.178Z,14.27
2019-02-28T09:38:34.673Z,13.43
2019-02-28T09:41:05.791Z,13.80
2019-02-28T09:43:35.275Z,14.67
2019-02-28T09:46:04.999Z,15.97
2019-02-28T09:48:37.291Z,16.63
2019-02-28T09:51:05.897Z,15.40
2019-02-28T09:53:35.372Z,14.77
2019-02-28T09:56:09.105Z,13.73
2019-02-28T09:58:36.256Z,16.20
2019-02-28T10:01:06.179Z,17.03
2019-02-28T10:03:35.678Z,16.17
2019-02-28T10:06:05.279Z,15.43
2019-02-28T10:08:36.876Z,18.20
2019-02-28T10:11:05.993Z,14.40
2019-02-28T10:13:35.497Z,16.47
2019-02-28T10:16:05.062Z,17.53
2019-02-28T10:18:35.528Z,16.13
2019-02-28T10:21:05.950Z,16.67
2019-02-28T10:23:35.459Z,15.57
2019-02-28T10:26:05.163Z,17.87
2019-02-28T10:28:34.654Z,18.30
2019-02-28T10:31:04.384Z,18.13
2019-02-28T10:33:33.886Z,19.70
2019-02-28T10:36:03.400Z,17.17
2019-02-28T10:38:33.935Z,18.57
2019-02-28T10:41:03.450Z,16.70
2019-02-28T10:43:33.029Z,17.33
2019-02-28T10:46:02.535Z,19.00
2019-02-28T10:48:32.019Z,18.10
2019-02-28T10:51:12.674Z,19.60
2019-02-28T10:53:32.871Z,17.07
2019-02-28T10:56:02.364Z,17.37
2019-02-28T10:58:32.030Z,17.33
2019-02-28T11:01:07.712Z,17.13
2019-02-28T11:03:33.277Z,16.17
2019-02-28T11:06:02.757Z,16.50
2019-02-28T11:08:32.330Z,16.23
2019-02-28T11:11:02.492Z,14.87
2019-02-28T11:13:32.999Z,16.30
2019-02-28T11:16:02.691Z,16.63
2019-02-28T11:18:32.531Z,16.40
2019-02-28T11:21:02.156Z,15.20
2019-02-28T11:23:31.759Z,14.60
2019-02-28T11:26:03.193Z,13.33
2019-02-28T11:28:32.750Z,14.70
2019-02-28T11:31:02.253Z,13.23
2019-02-28T11:33:31.729Z,14.53
2019-02-28T11:36:01.293Z,16.73
2019-02-28T11:38:30.935Z,16.40
2019-02-28T11:41:00.519Z,12.30
2019-02-28T11:43:30.072Z,15.23
2019-02-28T11:46:00.767Z,13.90
2019-02-28T11:48:31.035Z,15.33
2019-02-28T11:51:00.525Z,14.60
2019-02-28T11:53:30.090Z,14.80
2019-02-28T11:55:59.664Z,13.57
2019-02-28T11:58:30.493Z,14.53
2019-02-28T12:01:02.250Z,13.80
2019-02-28T12:03:31.835Z,12.67
2019-02-28T12:06:02.668Z,14.77
2019-02-28T12:08:32.286Z,13.30
2019-02-28T12:11:02.806Z,14.67
2019-02-28T12:13:32.475Z,14.03
2019-02-28T12:16:01.967Z,14.73
2019-02-28T12:18:31.465Z,14.63
2019-02-28T12:21:01.761Z,15.37
2019-02-28T12:23:32.331Z,15.80
2019-02-28T12:26:01.813Z,15.80
2019-02-28T12:28:31.452Z,15.33
2019-02-28T12:31:01.145Z,16.10
2019-02-28T12:33:30.610Z,14.40
2019-02-28T12:36:00.185Z,16.10
2019-02-28T12:38:29.763Z,17.90
2019-02-28T12:40:59.446Z,15.27
2019-02-28T12:43:28.952Z,18.23
2019-02-28T12:45:59.956Z,19.27
2019-02-28T12:48:29.774Z,20.50
2019-02-28T12:51:02.290Z,22.50
2019-02-28T12:53:32.448Z,22.90
2019-02-28T12:56:01.805Z,24.10
2019-02-28T12:58:38.666Z,25.97
2019-02-28T13:01:02.739Z,24.40
2019-02-28T13:03:32.226Z,24.97
2019-02-28T13:06:01.969Z,24.63
2019-02-28T13:08:31.535Z,25.67
2019-02-28T13:11:04.443Z,26.53
2019-02-28T13:13:32.753Z,21.53
2019-02-28T13:16:02.237Z,22.43
2019-02-28T13:18:31.733Z,23.57
2019-02-28T13:21:01.233Z,21.00
2019-02-28T13:23:33.019Z,20.40
2019-02-28T13:26:02.177Z,19.90
2019-02-28T13:28:31.688Z,18.90
2019-02-28T13:31:01.434Z,18.33
2019-02-28T13:33:30.970Z,17.23
2019-02-28T13:36:00.546Z,19.90
2019-02-28T13:38:30.024Z,19.30
2019-02-28T13:40:59.618Z,18.43
2019-02-28T13:43:29.131Z,18.73
2019-02-28T13:45:58.724Z,19.47
2019-02-28T13:48:33.450Z,16.37
2019-02-28T13:51:02.558Z,16.70
2019-02-28T13:53:31.826Z,16.00
2019-02-28T13:56:01.599Z,17.27
2019-02-28T13:58:31.247Z,16.03
2019-02-28T14:01:00.852Z,17.43
2019-02-28T14:03:30.431Z,15.23
2019-02-28T14:05:59.946Z,14.43
2019-02-28T14:08:29.539Z,14.97
2019-02-28T14:10:59.092Z,16.30
2019-02-28T14:13:30.051Z,13.00
2019-02-28T14:16:00.366Z,13.03
2019-02-28T14:18:29.861Z,12.33
2019-02-28T14:21:02.623Z,14.40
2019-02-28T14:23:30.931Z,12.37
2019-02-28T14:26:00.490Z,13.80
2019-02-28T14:28:32.415Z,10.90
2019-02-28T14:31:01.368Z,13.23
2019-02-28T14:33:30.933Z,11.90
2019-02-28T14:36:00.513Z,11.20
2019-02-28T14:38:32.839Z,13.10
2019-02-28T14:41:01.259Z,13.20
2019-02-28T14:43:30.786Z,12.57
2019-02-28T14:46:00.444Z,11.77
2019-02-28T14:48:30.022Z,10.53
2019-02-28T14:50:59.549Z,11.00
2019-02-28T14:53:29.121Z,12.53
2019-02-28T14:55:58.701Z,10.30
2019-02-28T14:58:28.267Z,12.67
2019-02-28T15:00:57.931Z,9.47
2019-02-28T15:03:27.426Z,9.80
2019-02-28T15:05:56.995Z,10.57
2019-02-28T15:08:27.190Z,8.30
2019-02-28T15:10:57.166Z,9.47
2019-02-28T15:13:26.737Z,7.93
2019-02-28T15:15:56.335Z,8.50
2019-02-28T15:18:25.917Z,8.00
2019-02-28T15:20:55.491Z,7.13
2019-02-28T15:23:25.022Z,7.00
2019-02-28T15:25:55.012Z,6.43
2019-02-28T15:28:24.600Z,6.07
2019-02-28T15:30:54.470Z,6.77
2019-02-28T15:33:23.978Z,6.50
2019-02-28T15:35:53.639Z,6.00
2019-02-28T15:38:23.129Z,6.87
2019-02-28T15:40:55.640Z,6.97
2019-02-28T15:43:23.957Z,6.10
2019-02-28T15:45:53.444Z,6.57
2019-02-28T15:48:23.003Z,6.70
2019-02-28T15:50:52.752Z,5.60
2019-02-28T15:53:22.357Z,5.87
2019-02-28T15:55:52.010Z,5.83
2019-02-28T15:58:21.575Z,4.97
2019-02-28T16:00:53.749Z,5.13
2019-02-28T16:03:23.326Z,5.00
2019-02-28T16:05:52.827Z,4.97
2019-02-28T16:08:22.424Z,5.70
2019-02-28T16:10:53.489Z,5.43
2019-02-28T16:13:25.891Z,5.70
2019-02-28T16:15:54.505Z,5.77
2019-02-28T16:18:24.025Z,4.33
2019-02-28T16:20:53.573Z,4.57
2019-02-28T16:23:23.653Z,5.33
2019-02-28T16:25:54.425Z,4.80
2019-02-28T16:28:23.986Z,4.60
2019-02-28T16:30:53.632Z,4.60
2019-02-28T16:33:24.907Z,5.00
2019-02-28T16:35:54.393Z,5.17
2019-02-28T16:38:23.902Z,5.33
2019-02-28T16:40:53.502Z,4.87
2019-02-28T16:43:42.673Z,5.20
2019-02-28T16:46:15.499Z,5.30
2019-02-28T16:48:44.663Z,5.37
2019-02-28T16:51:14.168Z,4.87
2019-02-28T16:53:43.756Z,4.77
2019-02-28T16:56:13.229Z,5.00
2019-02-28T16:58:42.755Z,4.87
2019-02-28T17:01:12.325Z,4.70
2019-02-28T17:03:42.738Z,6.10
2019-02-28T17:06:12.401Z,4.30
2019-02-28T17:08:43.621Z,4.30
2019-02-28T17:11:14.630Z,5.10
2019-02-28T17:13:46.122Z,5.13
2019-02-28T17:16:17.384Z,5.17
2019-02-28T17:18:46.921Z,5.33
2019-02-28T17:21:17.832Z,5.10
2019-02-28T17:23:47.931Z,5.67
2019-02-28T17:26:19.065Z,5.50
2019-02-28T17:28:51.006Z,5.47
2019-02-28T17:31:33.935Z,6.07
2019-02-28T17:34:03.574Z,6.25
2019-02-28T17:36:33.114Z,6.07
2019-02-28T17:39:02.734Z,6.08
2019-02-28T17:41:33.975Z,6.72
2019-02-28T17:44:23.219Z,5.60
2019-02-28T17:47:09.690Z,6.20
2019-02-28T17:49:59.981Z,7.30
2019-02-28T17:52:40.277Z,5.00
2019-02-28T17:55:47.825Z,7.50
2019-02-28T17:58:53.272Z,6.30
2019-02-28T18:01:45.569Z,7.17
2019-02-28T18:04:48.903Z,6.53
2019-02-28T18:07:57.854Z,5.62
2019-02-28T18:10:38.934Z,7.05
2019-02-28T18:13:24.827Z,6.10
2019-02-28T18:16:39.219Z,5.50
2019-02-28T18:19:33.338Z,6.40
2019-02-28T18:22:20.240Z,6.42
2019-02-28T18:25:20.122Z,6.12
2019-02-28T18:28:26.287Z,5.90
2019-02-28T18:31:08.846Z,6.40
2019-02-28T18:33:45.665Z,6.47
2019-02-28T18:36:18.738Z,6.03
2019-02-28T18:38:48.432Z,6.83
2019-02-28T18:41:18.079Z,5.67
2019-02-28T18:43:47.639Z,6.45
2019-02-28T18:46:17.254Z,6.58
2019-02-28T18:48:46.866Z,7.12
2019-02-28T18:51:16.853Z,7.17
2019-02-28T18:53:46.407Z,5.80
2019-02-28T18:56:15.886Z,5.23
2019-02-28T18:58:45.417Z,5.30
2019-02-28T19:01:15.075Z,6.17
2019-02-28T19:03:44.678Z,6.20
2019-02-28T19:06:14.240Z,5.30
2019-02-28T19:08:43.747Z,5.83
2019-02-28T19:11:13.302Z,6.30
2019-02-28T19:13:42.873Z,6.03
2019-02-28T19:16:12.362Z,6.90
2019-02-28T19:18:41.938Z,6.50
2019-02-28T19:21:11.436Z,5.20
2019-02-28T19:23:41.004Z,6.12
2019-02-28T19:26:10.509Z,5.62
2019-02-28T19:28:40.009Z,5.33
2019-02-28T19:31:09.739Z,5.75
2019-02-28T19:33:39.265Z,6.83
2019-02-28T19:36:08.841Z,6.17
2019-02-28T19:38:38.404Z,6.45
2019-02-28T19:41:08.092Z,6.92
2019-02-28T19:43:37.615Z,7.08
2019-02-28T19:46:07.245Z,8.08
2019-02-28T19:48:36.836Z,6.90
2019-02-28T19:51:06.417Z,8.68
2019-02-28T19:53:35.917Z,8.38
2019-02-28T19:56:05.800Z,7.35
2019-02-28T19:58:35.327Z,7.47
2019-02-28T20:01:04.971Z,8.40
2019-02-28T20:03:34.517Z,8.45
2019-02-28T20:06:04.147Z,7.50
2019-02-28T20:08:33.743Z,7.87
2019-02-28T20:11:03.312Z,7.70
2019-02-28T20:13:32.951Z,9.40
2019-02-28T20:16:02.575Z,8.45
2019-02-28T20:18:32.097Z,8.45
2019-02-28T20:21:03.705Z,9.18
2019-02-28T20:23:33.291Z,8.75
2019-02-28T20:26:02.911Z,8.95
2019-02-28T20:28:32.450Z,8.60
2019-02-28T20:31:02.147Z,9.33
2019-02-28T20:33:31.667Z,7.75
2019-02-28T20:36:01.296Z,8.70
2019-02-28T20:38:30.888Z,9.03
2019-02-28T20:41:00.437Z,8.45
2019-02-28T20:43:29.979Z,9.45
2019-02-28T20:45:59.502Z,9.18
2019-02-28T20:48:29.083Z,8.63
2019-02-28T20:50:58.712Z,9.13
2019-02-28T20:53:28.274Z,8.93
2019-02-28T20:55:57.820Z,9.60
2019-02-28T20:58:27.339Z,10.08
2019-02-28T21:00:56.968Z,9.58
2019-02-28T21:03:26.519Z,9.35
2019-02-28T21:05:56.085Z,8.30
2019-02-28T21:08:25.613Z,8.63
2019-02-28T21:10:55.255Z,8.98
2019-02-28T21:13:24.777Z,9.85
2019-02-28T21:15:54.359Z,8.35
2019-02-28T21:18:23.876Z,7.12
2019-02-28T21:20:53.483Z,8.28
2019-02-28T21:23:23.854Z,9.23
2019-02-28T21:25:53.391Z,6.05
2019-02-28T21:28:22.893Z,6.58
2019-02-28T21:30:52.424Z,5.75
2019-02-28T21:33:22.016Z,8.25
2019-02-28T21:35:51.610Z,6.95
2019-02-28T21:38:21.118Z,7.50
2019-02-28T21:40:50.672Z,7.37
2019-02-28T21:43:20.171Z,5.28
2019-02-28T21:45:50.814Z,6.33
2019-02-28T21:48:20.340Z,7.10
2019-02-28T21:50:50.086Z,6.58
2019-02-28T21:53:19.627Z,5.28
2019-02-28T21:55:49.141Z,5.90
2019-02-28T21:58:18.795Z,6.75
2019-02-28T22:00:48.368Z,6.33
2019-02-28T22:03:17.902Z,4.17
2019-02-28T22:05:47.474Z,6.25
2019-02-28T22:08:17.005Z,6.58
2019-02-28T22:10:46.504Z,6.10
2019-02-28T22:13:15.998Z,6.50
2019-02-28T22:15:45.502Z,5.65
2019-02-28T22:18:14.979Z,4.78
2019-02-28T22:20:44.488Z,5.20
2019-02-28T22:23:14.000Z,5.30
2019-02-28T22:25:43.512Z,4.72
2019-02-28T22:28:13.001Z,5.42
2019-02-28T22:30:42.364Z,4.58
2019-02-28T22:33:23.891Z,4.72
2019-02-28T22:36:00.773Z,4.42
2019-02-28T22:38:30.284Z,4.50
2019-02-28T22:40:59.892Z,4.60
2019-02-28T22:43:29.391Z,4.15
2019-02-28T22:45:58.879Z,4.55
2019-02-28T22:48:28.396Z,3.33
2019-02-28T22:50:57.904Z,3.12
2019-02-28T22:53:27.415Z,3.40
2019-02-28T22:55:56.994Z,3.08
2019-02-28T22:58:26.514Z,4.75
2019-02-28T23:01:18.656Z,2.55
2019-02-28T23:03:48.212Z,2.83
2019-02-28T23:06:17.804Z,3.08
2019-02-28T23:08:47.443Z,3.30
2019-02-28T23:11:17.007Z,2.27
2019-02-28T23:13:46.572Z,1.75
2019-02-28T23:16:16.079Z,2.75
2019-02-28T23:18:45.561Z,2.37
2019-02-28T23:21:15.133Z,2.77
2019-02-28T23:23:44.670Z,2.65
2019-02-28T23:26:14.726Z,2.50
2019-02-28T23:28:49.372Z,2.17
2019-02-28T23:31:59.302Z,2.45
2019-02-28T23:34:33.860Z,2.83
2019-02-28T23:37:03.372Z,2.77
2019-02-28T23:39:32.867Z,2.50
2019-02-28T23:42:02.434Z,2.47
2019-02-28T23:44:31.931Z,2.60
2019-02-28T23:47:01.435Z,3.45
2019-02-28T23:49:30.919Z,2.50
2019-02-28T23:52:00.433Z,2.60
2019-02-28T23:54:30.033Z,3.10
2019-02-28T23:56:59.666Z,3.72
2019-02-28T23:59:30.153Z,2.87
